createdAt,value
2022-10-20T00:00:00.357Z,101300
2022-10-20T00:01:01.293Z,101300
2022-10-20T00:02:00.245Z,101300
2022-10-20T00:03:00.422Z,101300
2022-10-20T00:04:00.406Z,101300
2022-10-20T00:05:00.222Z,101310
2022-10-20T00:06:10.040Z,101310
2022-10-20T00:07:00.219Z,101300
2022-10-20T00:08:00.231Z,101300
2022-10-20T00:09:02.539Z,101300
2022-10-20T00:10:00.224Z,101300
2022-10-20T00:11:00.341Z,101300
2022-10-20T00:12:00.224Z,101300
2022-10-20T00:13:00.246Z,101310
2022-10-20T00:14:01.016Z,101300
2022-10-20T00:15:00.238Z,101300
2022-10-20T00:16:00.559Z,101310
2022-10-20T00:17:00.327Z,101300
2022-10-20T00:18:00.234Z,101310
2022-10-20T00:19:00.475Z,101310
2022-10-20T00:20:00.360Z,101300
2022-10-20T00:21:04.761Z,101310
2022-10-20T00:22:00.250Z,101310
2022-10-20T00:23:00.218Z,101300
2022-10-20T00:24:01.207Z,101300
2022-10-20T00:25:00.229Z,101300
2022-10-20T00:26:03.563Z,101300
2022-10-20T00:27:00.207Z,101290
2022-10-20T00:28:00.223Z,101290
2022-10-20T00:29:02.312Z,101300
2022-10-20T00:30:00.237Z,101290
2022-10-20T00:31:00.718Z,101290
2022-10-20T00:32:00.262Z,101290
2022-10-20T00:33:01.418Z,101290
2022-10-20T00:34:00.260Z,101290
2022-10-20T00:35:00.253Z,101290
2022-10-20T00:36:01.790Z,101290
2022-10-20T00:37:00.325Z,101290
2022-10-20T00:38:00.215Z,101290
2022-10-20T00:39:03.354Z,101290
2022-10-20T00:40:00.255Z,101290
2022-10-20T00:41:00.670Z,101280
2022-10-20T00:42:02.246Z,101290
2022-10-20T00:43:00.214Z,101290
2022-10-20T00:44:11.795Z,101280
2022-10-20T00:45:00.701Z,101280
2022-10-20T00:46:00.472Z,101280
2022-10-20T00:47:00.294Z,101280
2022-10-20T00:48:07.220Z,101280
2022-10-20T00:49:05.748Z,101280
2022-10-20T00:50:05.207Z,101280
2022-10-20T00:51:00.730Z,101290
2022-10-20T00:52:00.353Z,101280
2022-10-20T00:53:01.482Z,101280
2022-10-20T00:54:06.480Z,101280
2022-10-20T00:55:01.295Z,101280
2022-10-20T00:56:00.771Z,101280
2022-10-20T00:57:00.759Z,101280
2022-10-20T00:58:02.054Z,101280
2022-10-20T00:59:02.368Z,101280
2022-10-20T01:00:00.963Z,101270
2022-10-20T01:01:00.514Z,101270
2022-10-20T01:02:02.511Z,101270
2022-10-20T01:03:02.643Z,101270
2022-10-20T01:04:00.596Z,101270
2022-10-20T01:05:00.377Z,101270
2022-10-20T01:06:00.286Z,101270
2022-10-20T01:07:00.318Z,101270
2022-10-20T01:08:00.221Z,101270
2022-10-20T01:09:00.824Z,101270
2022-10-20T01:10:01.621Z,101270
2022-10-20T01:11:01.231Z,101270
2022-10-20T01:12:13.531Z,101260
2022-10-20T01:13:06.644Z,101260
2022-10-20T01:14:11.188Z,101260
2022-10-20T01:15:10.313Z,101260
2022-10-20T01:16:11.496Z,101260
2022-10-20T01:17:15.348Z,101260
2022-10-20T01:18:04.494Z,101260
2022-10-20T01:19:20.136Z,101250
2022-10-20T01:20:20.162Z,101250
2022-10-20T01:21:20.130Z,101250
2022-10-20T01:22:20.131Z,101250
2022-10-20T01:23:20.123Z,101250
2022-10-20T01:24:20.156Z,101250
2022-10-20T01:25:17.640Z,101260
2022-10-20T01:26:20.153Z,101260
2022-10-20T01:27:12.968Z,101260
2022-10-20T01:28:15.143Z,101260
2022-10-20T01:29:12.032Z,101260
2022-10-20T01:30:06.783Z,101260
2022-10-20T01:31:06.141Z,101260
2022-10-20T01:32:13.503Z,101260
2022-10-20T01:33:15.796Z,101250
2022-10-20T01:34:10.182Z,101250
2022-10-20T01:35:13.854Z,101260
2022-10-20T01:36:06.457Z,101260
2022-10-20T01:37:10.028Z,101260
2022-10-20T01:38:13.514Z,101260
2022-10-20T01:39:05.867Z,101260
2022-10-20T01:40:14.676Z,101270
2022-10-20T01:41:16.265Z,101260
2022-10-20T01:42:07.925Z,101260
2022-10-20T01:43:04.721Z,101260
2022-10-20T01:44:04.037Z,101260
2022-10-20T01:45:02.900Z,101260
2022-10-20T01:46:00.898Z,101260
2022-10-20T01:47:01.653Z,101260
2022-10-20T01:48:03.849Z,101260
2022-10-20T01:49:02.785Z,101260
2022-10-20T01:50:02.119Z,101260
2022-10-20T01:51:01.853Z,101260
2022-10-20T01:52:00.336Z,101260
2022-10-20T01:53:01.217Z,101260
2022-10-20T01:54:00.271Z,101260
2022-10-20T01:55:00.268Z,101260
2022-10-20T01:56:00.983Z,101260
2022-10-20T01:57:10.149Z,101260
2022-10-20T01:58:15.551Z,101260
2022-10-20T01:59:06.956Z,101260
2022-10-20T02:00:13.631Z,101270
2022-10-20T02:01:11.915Z,101260
2022-10-20T02:02:20.118Z,101260
2022-10-20T02:03:03.465Z,101260
2022-10-20T02:04:01.959Z,101260
2022-10-20T02:05:08.648Z,101260
2022-10-20T02:06:13.327Z,101250
2022-10-20T02:07:07.033Z,101250
2022-10-20T02:08:12.905Z,101250
2022-10-20T02:09:04.596Z,101260
2022-10-20T02:10:20.122Z,101250
2022-10-20T02:11:02.639Z,101250
2022-10-20T02:12:07.814Z,101250
2022-10-20T02:13:05.834Z,101250
2022-10-20T02:14:01.783Z,101250
2022-10-20T02:15:01.580Z,101250
2022-10-20T02:16:06.613Z,101250
2022-10-20T02:17:07.437Z,101250
2022-10-20T02:18:03.544Z,101250
2022-10-20T02:19:01.292Z,101250
2022-10-20T02:20:03.892Z,101260
2022-10-20T02:21:02.669Z,101260
2022-10-20T02:22:01.010Z,101260
2022-10-20T02:23:03.565Z,101260
2022-10-20T02:24:04.179Z,101260
2022-10-20T02:25:00.566Z,101250
2022-10-20T02:26:02.793Z,101260
2022-10-20T02:27:04.562Z,101260
2022-10-20T02:28:01.917Z,101260
2022-10-20T02:29:05.080Z,101260
2022-10-20T02:30:10.986Z,101260
2022-10-20T02:31:01.763Z,101270
2022-10-20T02:32:00.424Z,101270
2022-10-20T02:33:00.436Z,101270
2022-10-20T02:34:01.363Z,101270
2022-10-20T02:35:06.777Z,101260
2022-10-20T02:36:04.674Z,101260
2022-10-20T02:37:00.347Z,101260
2022-10-20T02:38:01.107Z,101260
2022-10-20T02:39:00.343Z,101270
2022-10-20T02:40:00.851Z,101270
2022-10-20T02:41:00.233Z,101270
2022-10-20T02:42:00.228Z,101270
2022-10-20T02:43:00.250Z,101270
2022-10-20T02:44:00.234Z,101280
2022-10-20T02:45:00.643Z,101270
2022-10-20T02:46:00.232Z,101270
2022-10-20T02:47:00.249Z,101280
2022-10-20T02:48:00.212Z,101280
2022-10-20T02:49:00.294Z,101270
2022-10-20T02:50:00.449Z,101270
2022-10-20T02:51:00.448Z,101270
2022-10-20T02:52:00.313Z,101270
2022-10-20T02:53:00.338Z,101270
2022-10-20T02:54:00.345Z,101270
2022-10-20T02:55:00.239Z,101270
2022-10-20T02:56:00.217Z,101260
2022-10-20T02:57:00.262Z,101260
2022-10-20T02:58:00.260Z,101260
2022-10-20T02:59:00.243Z,101260
2022-10-20T03:00:00.236Z,101260
2022-10-20T03:01:01.073Z,101260
2022-10-20T03:02:00.356Z,101260
2022-10-20T03:03:00.350Z,101260
2022-10-20T03:04:00.218Z,101260
2022-10-20T03:05:00.229Z,101260
2022-10-20T03:06:09.692Z,101260
2022-10-20T03:07:00.251Z,101250
2022-10-20T03:08:00.213Z,101260
2022-10-20T03:09:00.519Z,101260
2022-10-20T03:10:00.215Z,101260
2022-10-20T03:11:00.226Z,101260
2022-10-20T03:12:00.881Z,101260
2022-10-20T03:13:00.216Z,101260
2022-10-20T03:14:00.272Z,101260
2022-10-20T03:15:00.258Z,101260
2022-10-20T03:16:00.773Z,101260
2022-10-20T03:17:00.224Z,101260
2022-10-20T03:18:00.215Z,101260
2022-10-20T03:19:03.917Z,101260
2022-10-20T03:20:00.221Z,101260
2022-10-20T03:21:00.290Z,101260
2022-10-20T03:22:00.236Z,101270
2022-10-20T03:23:00.213Z,101270
2022-10-20T03:24:00.242Z,101270
2022-10-20T03:25:00.262Z,101270
2022-10-20T03:26:03.150Z,101270
2022-10-20T03:27:00.260Z,101270
2022-10-20T03:28:00.229Z,101270
2022-10-20T03:29:00.317Z,101280
2022-10-20T03:30:00.361Z,101270
2022-10-20T03:31:00.297Z,101280
2022-10-20T03:32:00.280Z,101270
2022-10-20T03:33:00.234Z,101280
2022-10-20T03:34:00.232Z,101270
2022-10-20T03:35:00.306Z,101280
2022-10-20T03:36:00.250Z,101280
2022-10-20T03:37:00.231Z,101280
2022-10-20T03:38:00.246Z,101270
2022-10-20T03:39:00.353Z,101280
2022-10-20T03:40:00.406Z,101280
2022-10-20T03:42:00.221Z,101280
2022-10-20T03:43:00.223Z,101280
2022-10-20T03:44:00.225Z,101280
2022-10-20T03:45:00.234Z,101280
2022-10-20T03:46:02.747Z,101280
2022-10-20T03:47:00.215Z,101280
2022-10-20T03:48:00.236Z,101280
2022-10-20T03:49:00.314Z,101280
2022-10-20T03:50:00.494Z,101280
2022-10-20T03:51:01.173Z,101280
2022-10-20T03:52:00.235Z,101270
2022-10-20T03:53:00.208Z,101270
2022-10-20T03:54:00.228Z,101270
2022-10-20T03:55:00.252Z,101270
2022-10-20T03:56:08.734Z,101270
2022-10-20T03:57:00.220Z,101270
2022-10-20T03:58:00.227Z,101260
2022-10-20T03:59:00.301Z,101260
2022-10-20T04:00:00.337Z,101270
2022-10-20T04:01:01.137Z,101260
2022-10-20T04:02:00.697Z,101270
2022-10-20T04:03:00.254Z,101270
2022-10-20T04:04:00.227Z,101260
2022-10-20T04:05:00.711Z,101260
2022-10-20T04:06:00.245Z,101270
2022-10-20T04:07:00.246Z,101260
2022-10-20T04:08:00.253Z,101260
2022-10-20T04:09:00.345Z,101260
2022-10-20T04:10:00.230Z,101260
2022-10-20T04:11:00.220Z,101260
2022-10-20T04:12:00.227Z,101260
2022-10-20T04:13:01.415Z,101260
2022-10-20T04:14:00.301Z,101260
2022-10-20T04:15:00.517Z,101260
2022-10-20T04:16:00.228Z,101260
2022-10-20T04:17:00.224Z,101270
2022-10-20T04:18:00.251Z,101270
2022-10-20T04:19:00.274Z,101260
2022-10-20T04:20:00.220Z,101260
2022-10-20T04:21:00.229Z,101270
2022-10-20T04:22:00.336Z,101260
2022-10-20T04:23:00.249Z,101260
2022-10-20T04:24:00.221Z,101260
2022-10-20T04:25:00.391Z,101260
2022-10-20T04:26:07.464Z,101260
2022-10-20T04:27:00.393Z,101260
2022-10-20T04:28:00.297Z,101260
2022-10-20T04:29:00.259Z,101260
2022-10-20T04:30:00.237Z,101260
2022-10-20T04:31:00.664Z,101270
2022-10-20T04:32:00.249Z,101260
2022-10-20T04:33:00.219Z,101260
2022-10-20T04:34:00.218Z,101260
2022-10-20T04:35:00.505Z,101260
2022-10-20T04:36:03.533Z,101260
2022-10-20T04:37:00.214Z,101250
2022-10-20T04:38:00.254Z,101250
2022-10-20T04:39:00.421Z,101250
2022-10-20T04:40:00.225Z,101250
2022-10-20T04:41:04.174Z,101250
2022-10-20T04:42:00.228Z,101250
2022-10-20T04:43:00.480Z,101250
2022-10-20T04:44:00.237Z,101250
2022-10-20T04:45:00.395Z,101240
2022-10-20T04:46:05.462Z,101250
2022-10-20T04:47:00.326Z,101250
2022-10-20T04:48:00.217Z,101250
2022-10-20T04:49:00.369Z,101250
2022-10-20T04:50:00.235Z,101250
2022-10-20T04:51:03.254Z,101250
2022-10-20T04:52:01.334Z,101240
2022-10-20T04:53:00.242Z,101230
2022-10-20T04:54:00.425Z,101230
2022-10-20T04:55:00.270Z,101230
2022-10-20T04:56:00.892Z,101240
2022-10-20T04:57:00.214Z,101230
2022-10-20T04:58:00.271Z,101230
2022-10-20T04:59:00.249Z,101230
2022-10-20T05:00:00.307Z,101230
2022-10-20T05:01:03.569Z,101230
2022-10-20T05:02:00.286Z,101240
2022-10-20T05:03:00.279Z,101240
2022-10-20T05:04:00.330Z,101240
2022-10-20T05:05:00.218Z,101230
2022-10-20T05:06:08.885Z,101230
2022-10-20T05:07:00.236Z,101230
2022-10-20T05:08:00.212Z,101230
2022-10-20T05:09:03.187Z,101220
2022-10-20T05:10:00.254Z,101230
2022-10-20T05:11:00.397Z,101230
2022-10-20T05:12:00.337Z,101230
2022-10-20T05:13:00.209Z,101230
2022-10-20T05:14:00.735Z,101220
2022-10-20T05:15:00.271Z,101230
2022-10-20T05:16:00.274Z,101230
2022-10-20T05:17:00.241Z,101230
2022-10-20T05:18:00.237Z,101230
2022-10-20T05:19:00.314Z,101230
2022-10-20T05:20:00.266Z,101230
2022-10-20T05:21:16.362Z,101230
2022-10-20T05:22:00.213Z,101230
2022-10-20T05:23:00.231Z,101220
2022-10-20T05:24:02.386Z,101230
2022-10-20T05:25:12.833Z,101220
2022-10-20T05:26:03.195Z,101230
2022-10-20T05:27:00.235Z,101230
2022-10-20T05:28:00.220Z,101230
2022-10-20T05:29:03.082Z,101230
2022-10-20T05:30:00.244Z,101220
2022-10-20T05:31:01.909Z,101220
2022-10-20T05:32:00.211Z,101220
2022-10-20T05:33:00.435Z,101220
2022-10-20T05:34:00.249Z,101220
2022-10-20T05:35:00.221Z,101220
2022-10-20T05:36:06.687Z,101220
2022-10-20T05:37:00.255Z,101220
2022-10-20T05:38:00.217Z,101220
2022-10-20T05:39:00.583Z,101220
2022-10-20T05:40:00.239Z,101220
2022-10-20T05:41:12.214Z,101220
2022-10-20T05:42:00.227Z,101220
2022-10-20T05:43:00.225Z,101220
2022-10-20T05:44:02.427Z,101220
2022-10-20T05:45:00.238Z,101210
2022-10-20T05:46:00.573Z,101210
2022-10-20T05:47:00.227Z,101210
2022-10-20T05:48:00.232Z,101210
2022-10-20T05:49:02.240Z,101210
2022-10-20T05:50:00.381Z,101210
2022-10-20T05:51:15.357Z,101210
2022-10-20T05:52:00.221Z,101210
2022-10-20T05:53:00.231Z,101220
2022-10-20T05:54:01.047Z,101220
2022-10-20T05:55:00.463Z,101220
2022-10-20T05:56:02.582Z,101220
2022-10-20T05:57:00.232Z,101230
2022-10-20T05:58:00.225Z,101220
2022-10-20T05:59:00.919Z,101230
2022-10-20T06:00:00.240Z,101220
2022-10-20T06:01:10.931Z,101230
2022-10-20T06:02:00.313Z,101220
2022-10-20T06:03:00.264Z,101230
2022-10-20T06:04:00.217Z,101230
2022-10-20T06:05:00.238Z,101220
2022-10-20T06:06:01.185Z,101220
2022-10-20T06:07:00.268Z,101230
2022-10-20T06:08:00.275Z,101220
2022-10-20T06:09:04.380Z,101220
2022-10-20T06:10:00.841Z,101220
2022-10-20T06:11:04.172Z,101220
2022-10-20T06:12:00.465Z,101220
2022-10-20T06:13:00.207Z,101230
2022-10-20T06:14:00.259Z,101230
2022-10-20T06:15:00.214Z,101230
2022-10-20T06:16:01.386Z,101230
2022-10-20T06:17:00.252Z,101240
2022-10-20T06:18:00.246Z,101240
2022-10-20T06:19:00.868Z,101240
2022-10-20T06:20:00.262Z,101230
2022-10-20T06:21:03.325Z,101230
2022-10-20T06:22:03.933Z,101230
2022-10-20T06:23:00.311Z,101230
2022-10-20T06:24:01.575Z,101230
2022-10-20T06:25:00.229Z,101230
2022-10-20T06:26:02.710Z,101230
2022-10-20T06:27:00.222Z,101230
2022-10-20T06:28:00.220Z,101230
2022-10-20T06:29:04.327Z,101240
2022-10-20T06:30:00.212Z,101230
2022-10-20T06:31:09.491Z,101240
2022-10-20T06:32:00.220Z,101230
2022-10-20T06:33:00.218Z,101230
2022-10-20T06:34:03.254Z,101230
2022-10-20T06:35:00.226Z,101230
2022-10-20T06:36:00.240Z,101230
2022-10-20T06:37:00.221Z,101240
2022-10-20T06:38:00.217Z,101230
2022-10-20T06:39:00.386Z,101240
2022-10-20T06:40:00.244Z,101230
2022-10-20T06:41:00.997Z,101230
2022-10-20T06:42:00.222Z,101230
2022-10-20T06:43:00.227Z,101240
2022-10-20T06:44:00.241Z,101230
2022-10-20T06:45:00.211Z,101240
2022-10-20T06:46:02.907Z,101240
2022-10-20T06:47:00.212Z,101230
2022-10-20T06:48:00.224Z,101240
2022-10-20T06:49:01.742Z,101230
2022-10-20T06:50:00.240Z,101240
2022-10-20T06:51:02.563Z,101230
2022-10-20T06:52:00.303Z,101240
2022-10-20T06:53:00.321Z,101240
2022-10-20T06:54:00.645Z,101240
2022-10-20T06:55:00.261Z,101240
2022-10-20T06:56:02.709Z,101240
2022-10-20T06:57:00.232Z,101240
2022-10-20T06:58:00.233Z,101240
2022-10-20T06:59:01.120Z,101240
2022-10-20T07:00:00.211Z,101240
2022-10-20T07:01:05.736Z,101240
2022-10-20T07:02:00.307Z,101240
2022-10-20T07:03:00.208Z,101240
2022-10-20T07:04:04.367Z,101250
2022-10-20T07:05:00.242Z,101240
2022-10-20T07:06:01.047Z,101240
2022-10-20T07:07:00.300Z,101240
2022-10-20T07:08:00.254Z,101240
2022-10-20T07:09:01.810Z,101240
2022-10-20T07:10:00.279Z,101250
2022-10-20T07:11:05.667Z,101240
2022-10-20T07:12:00.994Z,101250
2022-10-20T07:13:00.224Z,101250
2022-10-20T07:14:01.566Z,101240
2022-10-20T07:15:00.266Z,101240
2022-10-20T07:16:00.985Z,101230
2022-10-20T07:17:00.264Z,101230
2022-10-20T07:18:00.266Z,101230
2022-10-20T07:19:01.885Z,101230
2022-10-20T07:20:00.233Z,101230
2022-10-20T07:21:02.823Z,101230
2022-10-20T07:22:00.225Z,101230
2022-10-20T07:23:00.256Z,101230
2022-10-20T07:24:00.844Z,101230
2022-10-20T07:25:00.259Z,101230
2022-10-20T07:26:02.654Z,101230
2022-10-20T07:27:00.298Z,101230
2022-10-20T07:28:00.254Z,101240
2022-10-20T07:29:00.802Z,101230
2022-10-20T07:30:00.445Z,101230
2022-10-20T07:31:03.928Z,101240
2022-10-20T07:32:02.036Z,101230
2022-10-20T07:33:00.257Z,101240
2022-10-20T07:34:13.070Z,101230
2022-10-20T07:35:00.220Z,101240
2022-10-20T07:36:00.382Z,101230
2022-10-20T07:37:00.235Z,101240
2022-10-20T07:38:00.424Z,101240
2022-10-20T07:39:02.606Z,101240
2022-10-20T07:40:00.239Z,101240
2022-10-20T07:41:01.781Z,101240
2022-10-20T07:42:00.249Z,101240
2022-10-20T07:43:00.214Z,101230
2022-10-20T07:44:00.212Z,101240
2022-10-20T07:45:00.230Z,101240
2022-10-20T07:46:00.413Z,101230
2022-10-20T07:47:00.224Z,101230
2022-10-20T07:48:00.327Z,101230
2022-10-20T07:49:23.951Z,101230
2022-10-20T07:50:00.285Z,101230
2022-10-20T07:52:00.294Z,101230
2022-10-20T07:53:00.219Z,101230
2022-10-20T07:54:03.258Z,101220
2022-10-20T07:55:17.401Z,101230
2022-10-20T07:56:00.228Z,101220
2022-10-20T07:57:00.217Z,101230
2022-10-20T07:58:00.565Z,101230
2022-10-20T07:59:00.627Z,101230
2022-10-20T08:00:00.316Z,101220
2022-10-20T08:01:00.306Z,101220
2022-10-20T08:02:00.666Z,101220
2022-10-20T08:03:00.239Z,101210
2022-10-20T08:04:00.239Z,101210
2022-10-20T08:05:00.260Z,101210
2022-10-20T08:06:00.357Z,101210
2022-10-20T08:07:00.280Z,101210
2022-10-20T08:08:00.256Z,101220
2022-10-20T08:09:00.539Z,101210
2022-10-20T08:10:00.253Z,101210
2022-10-20T08:11:00.273Z,101210
2022-10-20T08:12:00.465Z,101210
2022-10-20T08:13:00.227Z,101210
2022-10-20T08:14:00.247Z,101210
2022-10-20T08:15:00.345Z,101220
2022-10-20T08:16:03.528Z,101210
2022-10-20T08:17:01.164Z,101210
2022-10-20T08:18:00.422Z,101210
2022-10-20T08:19:02.289Z,101210
2022-10-20T08:20:01.484Z,101210
2022-10-20T08:21:08.577Z,101210
2022-10-20T08:22:00.263Z,101220
2022-10-20T08:23:00.275Z,101220
2022-10-20T08:24:00.236Z,101210
2022-10-20T08:25:00.234Z,101220
2022-10-20T08:26:00.248Z,101220
2022-10-20T08:27:01.038Z,101220
2022-10-20T08:28:00.271Z,101220
2022-10-20T08:29:00.253Z,101220
2022-10-20T08:30:19.107Z,101220
2022-10-20T08:31:02.207Z,101210
2022-10-20T08:32:00.211Z,101210
2022-10-20T08:33:00.386Z,101210
2022-10-20T08:34:00.313Z,101220
2022-10-20T08:35:00.339Z,101220
2022-10-20T08:36:03.775Z,101210
2022-10-20T08:37:00.230Z,101210
2022-10-20T08:38:00.217Z,101210
2022-10-20T08:39:03.561Z,101210
2022-10-20T08:40:00.208Z,101210
2022-10-20T08:41:01.251Z,101210
2022-10-20T08:42:08.926Z,101210
2022-10-20T08:43:00.455Z,101210
2022-10-20T08:44:03.724Z,101210
2022-10-20T08:45:00.243Z,101210
2022-10-20T08:46:00.257Z,101210
2022-10-20T08:47:01.735Z,101210
2022-10-20T08:48:01.232Z,101210
2022-10-20T08:49:01.251Z,101210
2022-10-20T08:50:02.151Z,101210
2022-10-20T08:51:00.292Z,101210
2022-10-20T08:52:00.757Z,101210
2022-10-20T08:53:00.327Z,101210
2022-10-20T08:54:02.127Z,101200
2022-10-20T08:55:03.740Z,101200
2022-10-20T08:56:00.207Z,101200
2022-10-20T08:57:00.245Z,101200
2022-10-20T08:58:03.732Z,101190
2022-10-20T08:59:01.188Z,101200
2022-10-20T09:00:12.093Z,101200
2022-10-20T09:01:00.349Z,101200
2022-10-20T09:02:01.755Z,101200
2022-10-20T09:03:13.068Z,101200
2022-10-20T09:04:17.469Z,101200
2022-10-20T09:05:01.344Z,101200
2022-10-20T09:06:06.976Z,101200
2022-10-20T09:07:08.853Z,101200
2022-10-20T09:08:00.230Z,101200
2022-10-20T09:09:00.927Z,101200
2022-10-20T09:10:20.181Z,101200
2022-10-20T09:11:00.246Z,101200
2022-10-20T09:12:04.295Z,101190
2022-10-20T09:13:01.520Z,101200
2022-10-20T09:14:00.257Z,101200
2022-10-20T09:15:00.398Z,101190
2022-10-20T09:16:04.648Z,101200
2022-10-20T09:17:01.110Z,101200
2022-10-20T09:18:04.908Z,101190
2022-10-20T09:19:00.730Z,101200
2022-10-20T09:20:01.395Z,101200
2022-10-20T09:21:13.448Z,101200
2022-10-20T09:22:05.422Z,101200
2022-10-20T09:23:04.209Z,101200
2022-10-20T09:24:03.052Z,101200
2022-10-20T09:25:00.277Z,101200
2022-10-20T09:26:00.235Z,101200
2022-10-20T09:27:19.618Z,101200
2022-10-20T09:28:00.229Z,101200
2022-10-20T09:29:12.855Z,101200
2022-10-20T09:30:20.130Z,101200
2022-10-20T09:31:00.214Z,101200
2022-10-20T09:32:11.432Z,101190
2022-10-20T09:33:20.146Z,101190
2022-10-20T09:34:00.262Z,101190
2022-10-20T09:35:16.384Z,101190
2022-10-20T09:36:06.094Z,101190
2022-10-20T09:37:10.928Z,101190
2022-10-20T09:38:02.247Z,101190
2022-10-20T09:39:00.747Z,101190
2022-10-20T09:40:02.109Z,101190
2022-10-20T09:41:10.282Z,101190
2022-10-20T09:42:04.665Z,101190
2022-10-20T09:43:07.751Z,101180
2022-10-20T09:44:07.007Z,101190
2022-10-20T09:45:06.263Z,101180
2022-10-20T09:46:05.683Z,101180
2022-10-20T09:47:00.827Z,101180
2022-10-20T09:48:20.133Z,101170
2022-10-20T09:49:00.284Z,101170
2022-10-20T09:50:04.624Z,101170
2022-10-20T09:51:00.780Z,101180
2022-10-20T09:52:03.452Z,101180
2022-10-20T09:53:04.885Z,101170
2022-10-20T09:54:05.235Z,101170
2022-10-20T09:55:05.654Z,101170
2022-10-20T09:56:00.802Z,101170
2022-10-20T09:57:06.119Z,101160
2022-10-20T09:58:02.589Z,101160
2022-10-20T09:59:04.875Z,101160
2022-10-20T10:00:04.546Z,101160
2022-10-20T10:01:05.411Z,101160
2022-10-20T10:02:13.445Z,101160
2022-10-20T10:03:10.202Z,101160
2022-10-20T10:04:00.264Z,101160
2022-10-20T10:05:13.017Z,101150
2022-10-20T10:06:20.151Z,101150
2022-10-20T10:07:00.877Z,101150
2022-10-20T10:08:01.000Z,101150
2022-10-20T10:09:01.183Z,101150
2022-10-20T10:10:03.939Z,101150
2022-10-20T10:11:03.898Z,101150
2022-10-20T10:12:03.371Z,101150
2022-10-20T10:13:00.693Z,101150
2022-10-20T10:14:01.222Z,101150
2022-10-20T10:15:04.596Z,101140
2022-10-20T10:16:04.467Z,101150
2022-10-20T10:17:00.960Z,101150
2022-10-20T10:18:11.542Z,101150
2022-10-20T10:19:02.733Z,101140
2022-10-20T10:20:01.944Z,101150
2022-10-20T10:21:04.568Z,101150
2022-10-20T10:22:02.492Z,101140
2022-10-20T10:23:19.297Z,101140
2022-10-20T10:24:02.721Z,101140
2022-10-20T10:25:01.359Z,101140
2022-10-20T10:26:02.218Z,101140
2022-10-20T10:27:00.314Z,101130
2022-10-20T10:28:02.741Z,101120
2022-10-20T10:29:00.322Z,101130
2022-10-20T10:30:20.164Z,101130
2022-10-20T10:31:17.739Z,101120
2022-10-20T10:32:03.825Z,101120
2022-10-20T10:33:00.891Z,101120
2022-10-20T10:34:11.200Z,101120
2022-10-20T10:35:06.935Z,101120
2022-10-20T10:36:02.411Z,101120
2022-10-20T10:37:00.284Z,101120
2022-10-20T10:38:00.362Z,101110
2022-10-20T10:39:02.797Z,101120
2022-10-20T10:40:01.556Z,101120
2022-10-20T10:41:11.191Z,101120
2022-10-20T10:42:19.288Z,101120
2022-10-20T10:43:10.169Z,101120
2022-10-20T10:44:18.850Z,101110
2022-10-20T10:45:10.194Z,101110
2022-10-20T10:46:20.137Z,101110
2022-10-20T10:47:17.043Z,101110
2022-10-20T10:48:20.121Z,101110
2022-10-20T10:49:13.403Z,101110
2022-10-20T10:50:20.163Z,101100
2022-10-20T10:51:07.696Z,101100
2022-10-20T10:52:13.421Z,101110
2022-10-20T10:53:01.234Z,101110
2022-10-20T10:54:11.730Z,101110
2022-10-20T10:55:25.738Z,101100
2022-10-20T10:56:13.505Z,101100
2022-10-20T10:57:20.135Z,101100
2022-10-20T10:58:10.733Z,101100
2022-10-20T10:59:16.876Z,101090
2022-10-20T11:00:09.554Z,101090
2022-10-20T11:01:16.309Z,101090
2022-10-20T11:02:20.134Z,101090
2022-10-20T11:03:04.061Z,101090
2022-10-20T11:04:10.185Z,101090
2022-10-20T11:05:20.128Z,101090
2022-10-20T11:06:09.015Z,101090
2022-10-20T11:07:12.876Z,101090
2022-10-20T11:08:10.521Z,101080
2022-10-20T11:09:10.032Z,101080
2022-10-20T11:10:11.184Z,101080
2022-10-20T11:11:10.161Z,101080
2022-10-20T11:12:01.225Z,101070
2022-10-20T11:13:10.192Z,101080
2022-10-20T11:14:13.505Z,101070
2022-10-20T11:15:13.441Z,101060
2022-10-20T11:16:20.137Z,101060
2022-10-20T11:17:15.803Z,101060
2022-10-20T11:18:20.162Z,101060
2022-10-20T11:19:10.212Z,101060
2022-10-20T11:20:14.605Z,101050
2022-10-20T11:21:19.720Z,101060
2022-10-20T11:22:02.259Z,101060
2022-10-20T11:23:20.158Z,101060
2022-10-20T11:24:11.181Z,101060
2022-10-20T11:25:08.944Z,101050
2022-10-20T11:26:20.136Z,101050
2022-10-20T11:27:09.769Z,101050
2022-10-20T11:28:00.738Z,101050
2022-10-20T11:29:04.163Z,101050
2022-10-20T11:30:03.622Z,101050
2022-10-20T11:31:00.319Z,101050
2022-10-20T11:32:09.472Z,101040
2022-10-20T11:33:08.700Z,101030
2022-10-20T11:34:05.649Z,101030
2022-10-20T11:35:13.194Z,101040
2022-10-20T11:36:07.982Z,101030
2022-10-20T11:37:06.692Z,101030
2022-10-20T11:38:16.160Z,101030
2022-10-20T11:39:00.429Z,101030
2022-10-20T11:40:13.154Z,101030
2022-10-20T11:41:14.430Z,101020
2022-10-20T11:42:16.214Z,101020
2022-10-20T11:43:12.079Z,101020
2022-10-20T11:44:05.163Z,101010
2022-10-20T11:45:04.009Z,101010
2022-10-20T11:46:09.233Z,101020
2022-10-20T11:47:06.795Z,101010
2022-10-20T11:48:15.571Z,101010
2022-10-20T11:49:03.227Z,101010
2022-10-20T11:50:03.181Z,101000
2022-10-20T11:52:20.147Z,101010
2022-10-20T11:53:09.107Z,101010
2022-10-20T11:54:02.249Z,101000
2022-10-20T11:55:17.832Z,100990
2022-10-20T11:56:00.203Z,100990
2022-10-20T11:57:10.926Z,101000
2022-10-20T11:58:20.146Z,100990
2022-10-20T11:59:19.525Z,100990
2022-10-20T12:00:10.297Z,100990
2022-10-20T12:01:17.169Z,100990
2022-10-20T12:02:17.741Z,100990
2022-10-20T12:03:20.129Z,100980
2022-10-20T12:04:20.131Z,100990
2022-10-20T12:05:07.654Z,100990
2022-10-20T12:06:20.132Z,100980
2022-10-20T12:07:10.168Z,100980
2022-10-20T12:08:28.755Z,100980
2022-10-20T12:09:20.237Z,100980
2022-10-20T12:10:07.652Z,100980
2022-10-20T12:11:06.757Z,100980
2022-10-20T12:12:07.326Z,100970
2022-10-20T12:13:10.911Z,100970
2022-10-20T12:14:07.289Z,100970
2022-10-20T12:15:13.291Z,100960
2022-10-20T12:16:00.399Z,100980
2022-10-20T12:17:11.990Z,100980
2022-10-20T12:18:05.668Z,100970
2022-10-20T12:19:15.701Z,100970
2022-10-20T12:20:20.165Z,100970
2022-10-20T12:21:02.285Z,100970
2022-10-20T12:22:13.347Z,100970
2022-10-20T12:23:00.237Z,100970
2022-10-20T12:24:00.245Z,100970
2022-10-20T12:25:00.200Z,100960
2022-10-20T12:26:00.262Z,100970
2022-10-20T12:27:04.137Z,100960
2022-10-20T12:28:20.122Z,100960
2022-10-20T12:29:11.529Z,100960
2022-10-20T12:30:13.237Z,100960
2022-10-20T12:31:03.646Z,100960